Time;durP1;ratioP1;P1;durP2;ratioP2;P2;SDS_P1;SDS_P2;PMS_P1;PMS_P2;Temp;Humidity;BMP_temperature;BMP_pressure;BME280_temperature;BME280_humidity;BME280_pressure;Samples;Min_cycle;Max_cycle;Signal;HPM_P1;HPM_P2
2021/12/05 00:21:42;;;;;;;;;;;4.40;99.90;;;;;;5074023;28;19908;-69
2021/12/05 00:24:16;;;;;;;;;;;4.40;99.90;;;;;;5073243;28;19917;-69
2021/12/05 00:26:46;;;;;;;;;;;4.40;99.90;;;;;;5056420;28;19916;-69
2021/12/05 00:39:38;;;;;;;;;;;4.30;99.90;;;;;;5072842;28;20359;-69
2021/12/05 01:07:52;;;;;;;;;;;4.10;99.90;;;;;;5073263;28;20375;-69
2021/12/05 01:10:51;;;;;;;;;;;4.10;99.90;;;;;;5054647;28;20326;-69
2021/12/05 01:15:39;;;;;;;;;;;4.00;99.90;;;;;;5073034;28;19991;-69
2021/12/05 01:18:09;;;;;;;;;;;;;;;;;;5072709;28;19913;-73
2021/12/05 01:20:39;;;;;;;;;;;4.10;99.90;;;;;;5072851;28;20287;-69
2021/12/05 01:23:15;;;;;;;;;;;;;;;;;;5071954;28;19920;-73
2021/12/05 01:25:51;;;;;;;;;;;4.10;99.90;;;;;;5055230;28;19909;-69
2021/12/05 01:31:21;;;;;;;;;;;4.10;99.90;;;;;;5073261;28;20280;-69
2021/12/05 01:57:48;;;;;;;;;;;4.00;99.90;;;;;;5072281;28;20272;-69
2021/12/05 02:11:11;;;;;;;;;;;4.00;99.90;;;;;;5072792;28;19943;-69
2021/12/05 02:29:22;;;;;;;;;;;3.90;99.90;;;;;;5071919;28;20440;-69
2021/12/05 02:35:42;;;;;;;;;;;4.20;99.90;;;;;;5071671;28;19916;-69
2021/12/05 02:38:46;;;;;;;;;;;4.20;99.90;;;;;;5075173;28;19909;-69
2021/12/05 02:41:09;;;;;;;;;;;4.20;99.90;;;;;;5075745;28;19909;-69
2021/12/05 02:43:39;;;;;;;;;;;4.20;99.90;;;;;;5058428;28;19909;-69
2021/12/05 02:46:06;;;;;;;;;;;4.20;99.90;;;;;;5076361;28;19912;-69
2021/12/05 02:48:34;;;;;;;;;;;4.20;99.90;;;;;;5075644;28;19999;-69
2021/12/05 02:51:01;;;;;;;;;;;4.10;99.90;;;;;;5076178;28;19934;-69
2021/12/05 02:53:36;;;;;;;;;;;4.20;99.90;;;;;;5074301;28;20439;-69
2021/12/05 02:56:02;;;;;;;;;;;4.20;99.90;;;;;;5076487;28;19914;-69
2021/12/05 02:58:42;;;;;;;;;;;4.30;99.90;;;;;;5075381;28;19915;-69
2021/12/05 03:01:16;;;;;;;;;;;4.30;99.90;;;;;;5076181;28;19908;-69
2021/12/05 03:03:42;;;;;;;;;;;4.20;99.90;;;;;;5058195;28;19913;-69
2021/12/05 03:06:18;;;;;;;;;;;4.20;99.90;;;;;;5075963;28;19963;-69
2021/12/05 03:08:45;;;;;;;;;;;4.10;99.90;;;;;;5075965;28;19908;-69
2021/12/05 03:11:11;;;;;;;;;;;;;;;;;;5075756;28;19916;-73
2021/12/05 03:13:37;;;;;;;;;;;4.20;99.90;;;;;;5075674;28;19917;-69
2021/12/05 03:16:03;;;;;;;;;;;4.10;99.90;;;;;;5075723;28;19909;-69
2021/12/05 03:18:29;;;;;;;;;;;4.10;99.90;;;;;;5075083;28;19913;-69
2021/12/05 03:20:58;;;;;;;;;;;4.00;99.90;;;;;;5075467;28;20335;-69
2021/12/05 03:23:24;;;;;;;;;;;4.10;99.90;;;;;;5074800;28;20422;-69
2021/12/05 03:25:49;;;;;;;;;;;4.10;99.90;;;;;;5075294;28;19951;-69
2021/12/05 03:28:15;;;;;;;;;;;4.10;99.90;;;;;;5074674;28;19952;-69
2021/12/05 03:30:41;;;;;;;;;;;4.10;99.90;;;;;;5075210;28;19952;-68
2021/12/05 03:33:07;;;;;;;;;;;4.00;99.90;;;;;;5075406;28;19915;-69
2021/12/05 03:35:32;;;;;;;;;;;4.00;99.90;;;;;;5074697;28;19927;-69
2021/12/05 03:37:58;;;;;;;;;;;4.00;99.90;;;;;;5075783;28;19909;-69
2021/12/05 03:40:25;;;;;;;;;;;4.00;99.90;;;;;;5075012;28;19912;-69
2021/12/05 03:42:51;;;;;;;;;;;4.00;99.90;;;;;;5075318;28;19908;-69
2021/12/05 03:45:19;;;;;;;;;;;4.10;99.90;;;;;;5074646;28;19909;-68
2021/12/05 03:47:45;;;;;;;;;;;4.10;99.90;;;;;;5074531;28;19908;-68
2021/12/05 03:50:12;;;;;;;;;;;4.00;99.90;;;;;;5057148;28;20378;-68
2021/12/05 03:52:38;;;;;;;;;;;4.00;99.90;;;;;;5074514;28;19920;-68
2021/12/05 03:55:05;;;;;;;;;;;4.00;99.90;;;;;;5074865;28;19946;-68
2021/12/05 03:57:30;;;;;;;;;;;4.10;99.90;;;;;;5074097;28;20274;-68
2021/12/05 03:59:56;;;;;;;;;;;4.00;99.90;;;;;;5074648;28;19915;-68
2021/12/05 04:02:22;;;;;;;;;;;4.00;99.90;;;;;;5074304;28;19909;-68
2021/12/05 04:04:47;;;;;;;;;;;3.90;99.90;;;;;;5074866;28;20359;-68
2021/12/05 04:07:13;;;;;;;;;;;3.90;99.90;;;;;;5057051;28;19947;-68
2021/12/05 04:09:39;;;;;;;;;;;3.90;99.90;;;;;;5074479;28;20341;-68
2021/12/05 04:12:05;;;;;;;;;;;3.90;99.90;;;;;;5074710;28;19952;-68
2021/12/05 04:14:34;;;;;;;;;;;3.90;99.90;;;;;;5073931;28;19923;-68
2021/12/05 04:17:00;;;;;;;;;;;3.90;99.90;;;;;;5074589;28;20364;-68
2021/12/05 04:19:26;;;;;;;;;;;3.80;99.90;;;;;;5073989;28;19931;-68
2021/12/05 04:21:51;;;;;;;;;;;3.80;99.90;;;;;;5074267;28;19913;-68
2021/12/05 04:24:17;;;;;;;;;;;3.90;99.90;;;;;;5074072;28;20263;-68
2021/12/05 04:26:43;;;;;;;;;;;3.90;99.90;;;;;;5074300;28;19909;-68
2021/12/05 04:29:09;;;;;;;;;;;3.70;99.90;;;;;;5074405;28;19967;-69
2021/12/05 04:31:35;;;;;;;;;;;3.90;99.90;;;;;;5073432;28;19909;-68
2021/12/05 04:34:01;;;;;;;;;;;4.00;99.90;;;;;;5073923;28;19917;-68
2021/12/05 04:36:27;;;;;;;;;;;3.90;99.90;;;;;;5073324;28;20284;-68
2021/12/05 04:38:53;;;;;;;;;;;3.90;99.90;;;;;;5074171;28;19915;-68
2021/12/05 04:41:18;;;;;;;;;;;3.90;99.90;;;;;;5073145;28;20364;-68
2021/12/05 04:43:44;;;;;;;;;;;3.90;99.90;;;;;;5056101;28;19909;-68
2021/12/05 04:46:18;;;;;;;;;;;3.90;99.90;;;;;;5074001;28;19944;-68
2021/12/05 04:48:46;;;;;;;;;;;4.00;99.90;;;;;;5073958;28;19916;-68
2021/12/05 04:51:12;;;;;;;;;;;3.90;99.90;;;;;;5073641;28;20352;-68
2021/12/05 04:53:38;;;;;;;;;;;3.90;99.90;;;;;;5072860;28;19947;-68
2021/12/05 04:56:04;;;;;;;;;;;3.90;99.90;;;;;;5074092;28;20264;-68
2021/12/05 04:58:29;;;;;;;;;;;3.90;99.90;;;;;;5072191;28;19934;-68
2021/12/05 05:00:57;;;;;;;;;;;3.80;99.90;;;;;;5073646;28;19916;-68
2021/12/05 05:03:24;;;;;;;;;;;3.80;99.90;;;;;;5073233;28;19966;-68
2021/12/05 05:06:05;;;;;;;;;;;3.80;99.90;;;;;;5073508;28;19955;-68
2021/12/05 05:08:31;;;;;;;;;;;3.80;99.90;;;;;;5073090;28;19943;-68
2021/12/05 05:10:58;;;;;;;;;;;3.80;99.90;;;;;;5073271;28;19909;-68
2021/12/05 05:13:25;;;;;;;;;;;3.80;99.90;;;;;;5073153;28;19916;-68
2021/12/05 05:15:51;;;;;;;;;;;3.70;99.90;;;;;;5073512;28;19916;-68
2021/12/05 05:18:16;;;;;;;;;;;3.70;99.90;;;;;;5073082;28;20322;-68
2021/12/05 05:20:56;;;;;;;;;;;3.70;99.90;;;;;;5072685;28;19909;-68
2021/12/05 05:23:42;;;;;;;;;;;3.60;99.90;;;;;;5072475;28;19917;-69
2021/12/05 05:28:58;;;;;;;;;;;3.70;99.90;;;;;;5072743;28;19912;-68
2021/12/05 05:47:40;;;;;;;;;;;3.60;99.90;;;;;;5072247;28;19999;-69
2021/12/05 05:50:06;;;;;;;;;;;3.60;99.90;;;;;;5073119;28;19917;-68
2021/12/05 05:52:31;;;;;;;;;;;3.50;99.90;;;;;;5072225;28;19958;-68
2021/12/05 05:54:58;;;;;;;;;;;3.50;99.90;;;;;;5072821;28;19943;-68
2021/12/05 05:57:33;;;;;;;;;;;3.50;99.90;;;;;;5072299;28;19908;-69
2021/12/05 06:00:12;;;;;;;;;;;3.50;99.90;;;;;;5073150;28;19995;-68
2021/12/05 06:05:22;;;;;;;;;;;;;;;;;;5072369;28;19916;-69
2021/12/05 06:07:48;;;;;;;;;;;3.40;99.90;;;;;;5072825;28;19909;-68
2021/12/05 06:10:18;;;;;;;;;;;3.40;99.90;;;;;;5074391;28;19934;-68
2021/12/05 06:12:44;;;;;;;;;;;3.50;99.90;;;;;;5076165;28;19915;-68
2021/12/05 06:15:12;;;;;;;;;;;3.40;99.90;;;;;;5076877;28;19916;-68
2021/12/05 06:17:38;;;;;;;;;;;3.50;99.90;;;;;;5077448;28;20374;-68
2021/12/05 06:20:15;;;;;;;;;;;3.60;99.90;;;;;;5076930;28;19909;-68
2021/12/05 06:22:40;;;;;;;;;;;3.70;99.90;;;;;;5075813;28;19913;-68
2021/12/05 06:25:09;;;;;;;;;;;3.60;99.90;;;;;;5075689;28;19943;-68
2021/12/05 06:27:35;;;;;;;;;;;3.50;99.90;;;;;;5073810;28;19908;-68
2021/12/05 06:46:29;;;;;;;;;;;3.70;99.90;;;;;;5075707;28;20418;-68
2021/12/05 06:48:55;;;;;;;;;;;3.60;99.90;;;;;;5075959;28;19937;-70
2021/12/05 06:51:22;;;;;;;;;;;3.60;99.90;;;;;;5075502;28;19912;-70
2021/12/05 06:53:47;;;;;;;;;;;3.50;99.90;;;;;;5074686;28;20293;-70
2021/12/05 06:56:13;;;;;;;;;;;3.60;99.90;;;;;;5076445;28;20368;-70
2021/12/05 06:58:39;;;;;;;;;;;3.60;99.90;;;;;;5074881;28;19909;-70
2021/12/05 07:01:05;;;;;;;;;;;;;;;;;;5075433;28;19966;-70
2021/12/05 07:03:30;;;;;;;;;;;3.50;99.90;;;;;;5074816;28;19908;-70
2021/12/05 07:08:25;;;;;;;;;;;3.70;99.90;;;;;;5075515;28;19908;-70
2021/12/05 07:11:03;;;;;;;;;;;3.70;99.90;;;;;;5056756;28;19944;-70
2021/12/05 07:21:49;;;;;;;;;;;3.70;99.90;;;;;;5073534;28;19913;-70
2021/12/05 07:42:46;;;;;;;;;;;3.90;99.90;;;;;;5074144;28;19912;-68
2021/12/05 07:45:16;;;;;;;;;;;4.00;99.90;;;;;;5074827;28;19916;-68
2021/12/05 07:47:45;;;;;;;;;;;4.10;99.90;;;;;;5073946;28;19912;-68
2021/12/05 07:50:12;;;;;;;;;;;4.00;99.90;;;;;;5056921;28;19993;-69
2021/12/05 07:52:42;;;;;;;;;;;4.00;99.90;;;;;;5073738;28;19912;-73
2021/12/05 07:55:33;;;;;;;;;;;3.90;99.90;;;;;;5074598;28;19928;-74
2021/12/05 07:58:08;;;;;;;;;;;4.00;99.90;;;;;;5073931;28;20379;-69
2021/12/05 08:00:57;;;;;;;;;;;4.00;99.90;;;;;;5073559;28;20319;-67
2021/12/05 08:14:27;;;;;;;;;;;4.10;99.90;;;;;;5074243;28;19988;-70
2021/12/05 08:16:53;;;;;;;;;;;4.10;99.90;;;;;;5055099;28;19912;-70
2021/12/05 08:19:19;;;;;;;;;;;4.10;99.90;;;;;;5073872;28;19944;-69
2021/12/05 08:21:45;;;;;;;;;;;4.20;99.90;;;;;;5073293;28;19908;-69
2021/12/05 08:24:11;;;;;;;;;;;4.20;99.90;;;;;;5056212;28;20016;-69
2021/12/05 08:26:37;;;;;;;;;;;;;;;;;;5070047;28;20272;-69
2021/12/05 08:29:14;;;;;;;;;;;;;;;;;;5070652;28;20008;-69
2021/12/05 08:37:07;;;;;;;;;;;;;;;;;;5069603;28;19908;-72
2021/12/05 09:30:13;;;;;;;;;;;;;;;;;;5068670;28;19909;-71
